sensor_id;sensor_type;location;lat;lon;timestamp;P1;durP1;ratioP1;P2;durP2;ratioP2
46090;SDS011;31826;53.572;10.170;2023-06-04T00:00:41;5.47;;;1.77;;
46090;SDS011;31826;53.572;10.170;2023-06-04T00:03:07;3.70;;;1.95;;
46090;SDS011;31826;53.572;10.170;2023-06-04T00:05:33;3.75;;;1.80;;
46090;SDS011;31826;53.572;10.170;2023-06-04T00:07:59;5.00;;;1.90;;
46090;SDS011;31826;53.572;10.170;2023-06-04T00:10:24;5.35;;;1.83;;
46090;SDS011;31826;53.572;10.170;2023-06-04T00:12:50;3.70;;;1.85;;
46090;SDS011;31826;53.572;10.170;2023-06-04T00:15:16;3.65;;;2.20;;
46090;SDS011;31826;53.572;10.170;2023-06-04T00:17:42;3.22;;;1.60;;
46090;SDS011;31826;53.572;10.170;2023-06-04T00:20:09;3.60;;;1.65;;
46090;SDS011;31826;53.572;10.170;2023-06-04T00:22:35;2.40;;;1.65;;
46090;SDS011;31826;53.572;10.170;2023-06-04T00:25:01;4.60;;;1.90;;
46090;SDS011;31826;53.572;10.170;2023-06-04T00:27:28;3.55;;;1.85;;
46090;SDS011;31826;53.572;10.170;2023-06-04T00:29:53;3.78;;;1.80;;
46090;SDS011;31826;53.572;10.170;2023-06-04T00:32:19;3.75;;;1.95;;
46090;SDS011;31826;53.572;10.170;2023-06-04T00:34:52;3.92;;;1.70;;
46090;SDS011;31826;53.572;10.170;2023-06-04T00:37:20;2.87;;;2.00;;
46090;SDS011;31826;53.572;10.170;2023-06-04T00:39:50;4.60;;;1.77;;
46090;SDS011;31826;53.572;10.170;2023-06-04T00:42:16;5.32;;;2.00;;
46090;SDS011;31826;53.572;10.170;2023-06-04T00:44:42;2.63;;;1.80;;
46090;SDS011;31826;53.572;10.170;2023-06-04T00:47:12;3.80;;;1.90;;
46090;SDS011;31826;53.572;10.170;2023-06-04T00:49:42;3.90;;;1.60;;
46090;SDS011;31826;53.572;10.170;2023-06-04T00:52:08;3.38;;;1.70;;
46090;SDS011;31826;53.572;10.170;2023-06-04T00:54:35;3.67;;;1.85;;
46090;SDS011;31826;53.572;10.170;2023-06-04T00:57:02;4.05;;;1.80;;
46090;SDS011;31826;53.572;10.170;2023-06-04T00:59:29;2.20;;;1.50;;
46090;SDS011;31826;53.572;10.170;2023-06-04T01:04:42;4.22;;;1.50;;
46090;SDS011;31826;53.572;10.170;2023-06-04T01:07:21;3.13;;;1.52;;
46090;SDS011;31826;53.572;10.170;2023-06-04T01:09:48;3.67;;;1.77;;
46090;SDS011;31826;53.572;10.170;2023-06-04T01:12:15;3.13;;;1.60;;
46090;SDS011;31826;53.572;10.170;2023-06-04T01:14:41;3.17;;;1.58;;
46090;SDS011;31826;53.572;10.170;2023-06-04T01:17:11;2.13;;;1.45;;
46090;SDS011;31826;53.572;10.170;2023-06-04T01:25:33;4.30;;;1.60;;
46090;SDS011;31826;53.572;10.170;2023-06-04T01:28:10;3.17;;;1.80;;
46090;SDS011;31826;53.572;10.170;2023-06-04T01:30:41;3.00;;;1.88;;
46090;SDS011;31826;53.572;10.170;2023-06-04T01:33:11;3.42;;;1.75;;
46090;SDS011;31826;53.572;10.170;2023-06-04T01:35:38;3.30;;;1.80;;
46090;SDS011;31826;53.572;10.170;2023-06-04T01:38:05;3.25;;;1.90;;
46090;SDS011;31826;53.572;10.170;2023-06-04T01:40:33;2.50;;;1.55;;
46090;SDS011;31826;53.572;10.170;2023-06-04T01:43:00;4.50;;;1.70;;
46090;SDS011;31826;53.572;10.170;2023-06-04T01:45:26;3.78;;;1.70;;
46090;SDS011;31826;53.572;10.170;2023-06-04T01:47:52;2.83;;;1.50;;
46090;SDS011;31826;53.572;10.170;2023-06-04T01:50:18;2.88;;;1.63;;
46090;SDS011;31826;53.572;10.170;2023-06-04T01:52:45;3.90;;;1.65;;
46090;SDS011;31826;53.572;10.170;2023-06-04T01:55:11;4.07;;;1.70;;
46090;SDS011;31826;53.572;10.170;2023-06-04T01:57:39;5.00;;;1.80;;
46090;SDS011;31826;53.572;10.170;2023-06-04T02:00:06;4.63;;;1.70;;
46090;SDS011;31826;53.572;10.170;2023-06-04T02:02:35;4.35;;;1.80;;
46090;SDS011;31826;53.572;10.170;2023-06-04T02:05:02;3.15;;;1.77;;
46090;SDS011;31826;53.572;10.170;2023-06-04T02:07:33;5.07;;;1.77;;
46090;SDS011;31826;53.572;10.170;2023-06-04T02:09:59;4.22;;;1.92;;
46090;SDS011;31826;53.572;10.170;2023-06-04T02:12:25;4.82;;;1.83;;
46090;SDS011;31826;53.572;10.170;2023-06-04T02:14:51;3.63;;;1.80;;
46090;SDS011;31826;53.572;10.170;2023-06-04T02:17:17;4.10;;;1.70;;
46090;SDS011;31826;53.572;10.170;2023-06-04T02:19:43;3.88;;;1.80;;
46090;SDS011;31826;53.572;10.170;2023-06-04T02:22:18;3.17;;;1.80;;
46090;SDS011;31826;53.572;10.170;2023-06-04T02:24:44;2.88;;;1.80;;
46090;SDS011;31826;53.572;10.170;2023-06-04T02:27:13;4.20;;;1.77;;
46090;SDS011;31826;53.572;10.170;2023-06-04T02:29:39;3.20;;;1.60;;
46090;SDS011;31826;53.572;10.170;2023-06-04T02:32:06;3.78;;;1.70;;
46090;SDS011;31826;53.572;10.170;2023-06-04T02:34:32;3.50;;;1.80;;
46090;SDS011;31826;53.572;10.170;2023-06-04T02:37:01;2.92;;;1.73;;
46090;SDS011;31826;53.572;10.170;2023-06-04T02:39:27;2.40;;;1.60;;
46090;SDS011;31826;53.572;10.170;2023-06-04T02:41:53;3.07;;;1.60;;
46090;SDS011;31826;53.572;10.170;2023-06-04T02:44:19;4.13;;;1.80;;
46090;SDS011;31826;53.572;10.170;2023-06-04T02:46:45;5.07;;;1.80;;
46090;SDS011;31826;53.572;10.170;2023-06-04T02:49:11;2.72;;;1.60;;
46090;SDS011;31826;53.572;10.170;2023-06-04T02:51:40;3.90;;;1.70;;
46090;SDS011;31826;53.572;10.170;2023-06-04T02:54:06;2.95;;;1.80;;
46090;SDS011;31826;53.572;10.170;2023-06-04T02:56:31;3.50;;;1.88;;
46090;SDS011;31826;53.572;10.170;2023-06-04T02:58:58;3.42;;;1.55;;
46090;SDS011;31826;53.572;10.170;2023-06-04T03:01:24;3.92;;;1.77;;
46090;SDS011;31826;53.572;10.170;2023-06-04T03:03:51;4.00;;;1.92;;
46090;SDS011;31826;53.572;10.170;2023-06-04T03:06:18;4.32;;;1.98;;
46090;SDS011;31826;53.572;10.170;2023-06-04T03:08:46;3.85;;;1.90;;
46090;SDS011;31826;53.572;10.170;2023-06-04T03:11:15;3.78;;;1.70;;
46090;SDS011;31826;53.572;10.170;2023-06-04T03:13:47;4.28;;;1.95;;
46090;SDS011;31826;53.572;10.170;2023-06-04T03:16:14;3.65;;;1.73;;
46090;SDS011;31826;53.572;10.170;2023-06-04T03:18:40;3.60;;;1.80;;
46090;SDS011;31826;53.572;10.170;2023-06-04T03:21:07;4.37;;;1.80;;
46090;SDS011;31826;53.572;10.170;2023-06-04T03:23:34;4.75;;;2.00;;
46090;SDS011;31826;53.572;10.170;2023-06-04T03:26:03;3.40;;;1.80;;
46090;SDS011;31826;53.572;10.170;2023-06-04T03:28:30;5.22;;;2.05;;
46090;SDS011;31826;53.572;10.170;2023-06-04T03:30:57;5.35;;;1.95;;
46090;SDS011;31826;53.572;10.170;2023-06-04T03:33:23;2.85;;;1.80;;
46090;SDS011;31826;53.572;10.170;2023-06-04T03:35:52;3.22;;;1.95;;
46090;SDS011;31826;53.572;10.170;2023-06-04T03:38:21;4.30;;;1.70;;
46090;SDS011;31826;53.572;10.170;2023-06-04T03:40:46;3.22;;;1.70;;
46090;SDS011;31826;53.572;10.170;2023-06-04T03:43:13;3.95;;;1.90;;
46090;SDS011;31826;53.572;10.170;2023-06-04T03:45:39;4.13;;;1.80;;
46090;SDS011;31826;53.572;10.170;2023-06-04T03:48:04;3.63;;;1.70;;
46090;SDS011;31826;53.572;10.170;2023-06-04T03:50:30;4.35;;;1.73;;
46090;SDS011;31826;53.572;10.170;2023-06-04T03:52:56;3.50;;;1.90;;
46090;SDS011;31826;53.572;10.170;2023-06-04T03:55:22;4.57;;;2.20;;
46090;SDS011;31826;53.572;10.170;2023-06-04T03:57:47;2.60;;;1.70;;
46090;SDS011;31826;53.572;10.170;2023-06-04T04:00:13;3.00;;;1.70;;
46090;SDS011;31826;53.572;10.170;2023-06-04T04:02:40;5.40;;;1.92;;
46090;SDS011;31826;53.572;10.170;2023-06-04T04:05:06;4.00;;;2.20;;
46090;SDS011;31826;53.572;10.170;2023-06-04T04:07:32;2.38;;;1.52;;
46090;SDS011;31826;53.572;10.170;2023-06-04T04:09:58;3.40;;;1.70;;
46090;SDS011;31826;53.572;10.170;2023-06-04T04:12:24;4.15;;;1.95;;
46090;SDS011;31826;53.572;10.170;2023-06-04T04:14:49;4.63;;;1.80;;
46090;SDS011;31826;53.572;10.170;2023-06-04T04:17:15;3.15;;;1.70;;
46090;SDS011;31826;53.572;10.170;2023-06-04T04:19:41;4.97;;;1.85;;
46090;SDS011;31826;53.572;10.170;2023-06-04T04:22:07;4.53;;;1.80;;
46090;SDS011;31826;53.572;10.170;2023-06-04T04:24:35;2.90;;;1.73;;
46090;SDS011;31826;53.572;10.170;2023-06-04T04:27:03;4.43;;;1.60;;
46090;SDS011;31826;53.572;10.170;2023-06-04T04:29:30;4.55;;;1.80;;
46090;SDS011;31826;53.572;10.170;2023-06-04T04:31:59;7.43;;;1.77;;
46090;SDS011;31826;53.572;10.170;2023-06-04T04:34:26;3.75;;;1.95;;
46090;SDS011;31826;53.572;10.170;2023-06-04T04:36:52;5.73;;;1.97;;
46090;SDS011;31826;53.572;10.170;2023-06-04T04:39:19;4.70;;;1.70;;
46090;SDS011;31826;53.572;10.170;2023-06-04T04:41:48;3.43;;;1.80;;
46090;SDS011;31826;53.572;10.170;2023-06-04T04:44:14;3.00;;;1.60;;
46090;SDS011;31826;53.572;10.170;2023-06-04T04:46:39;3.65;;;1.80;;
46090;SDS011;31826;53.572;10.170;2023-06-04T04:49:05;3.27;;;1.80;;
46090;SDS011;31826;53.572;10.170;2023-06-04T04:51:31;4.17;;;1.77;;
46090;SDS011;31826;53.572;10.170;2023-06-04T04:53:57;2.23;;;1.50;;
46090;SDS011;31826;53.572;10.170;2023-06-04T04:56:25;2.78;;;1.58;;
46090;SDS011;31826;53.572;10.170;2023-06-04T04:58:52;2.42;;;1.50;;
46090;SDS011;31826;53.572;10.170;2023-06-04T05:01:18;3.60;;;1.63;;
46090;SDS011;31826;53.572;10.170;2023-06-04T05:03:45;5.50;;;1.80;;
46090;SDS011;31826;53.572;10.170;2023-06-04T05:06:11;4.13;;;1.60;;
46090;SDS011;31826;53.572;10.170;2023-06-04T05:08:36;2.97;;;1.50;;
46090;SDS011;31826;53.572;10.170;2023-06-04T05:11:02;3.10;;;1.53;;
46090;SDS011;31826;53.572;10.170;2023-06-04T05:13:28;4.53;;;1.60;;
46090;SDS011;31826;53.572;10.170;2023-06-04T05:15:54;4.32;;;1.60;;
46090;SDS011;31826;53.572;10.170;2023-06-04T05:18:20;2.97;;;1.60;;
46090;SDS011;31826;53.572;10.170;2023-06-04T05:20:46;5.80;;;1.80;;
46090;SDS011;31826;53.572;10.170;2023-06-04T05:23:12;3.33;;;1.52;;
46090;SDS011;31826;53.572;10.170;2023-06-04T05:25:38;3.53;;;1.60;;
46090;SDS011;31826;53.572;10.170;2023-06-04T05:28:05;3.40;;;1.70;;
46090;SDS011;31826;53.572;10.170;2023-06-04T05:30:32;4.45;;;1.48;;
46090;SDS011;31826;53.572;10.170;2023-06-04T05:32:58;3.35;;;1.70;;
46090;SDS011;31826;53.572;10.170;2023-06-04T05:35:24;4.30;;;1.80;;
46090;SDS011;31826;53.572;10.170;2023-06-04T05:37:50;5.37;;;1.80;;
46090;SDS011;31826;53.572;10.170;2023-06-04T05:40:21;2.55;;;1.42;;
46090;SDS011;31826;53.572;10.170;2023-06-04T05:42:48;4.25;;;1.70;;
46090;SDS011;31826;53.572;10.170;2023-06-04T05:45:14;4.70;;;1.60;;
46090;SDS011;31826;53.572;10.170;2023-06-04T05:47:39;6.60;;;1.80;;
46090;SDS011;31826;53.572;10.170;2023-06-04T05:50:05;2.90;;;1.47;;
46090;SDS011;31826;53.572;10.170;2023-06-04T05:52:32;5.88;;;2.00;;
46090;SDS011;31826;53.572;10.170;2023-06-04T05:54:59;4.68;;;1.75;;
46090;SDS011;31826;53.572;10.170;2023-06-04T05:57:25;5.30;;;1.80;;
46090;SDS011;31826;53.572;10.170;2023-06-04T05:59:51;3.47;;;1.58;;
46090;SDS011;31826;53.572;10.170;2023-06-04T06:02:17;4.82;;;1.52;;
46090;SDS011;31826;53.572;10.170;2023-06-04T06:04:42;4.30;;;1.45;;
46090;SDS011;31826;53.572;10.170;2023-06-04T06:07:08;6.47;;;1.77;;
46090;SDS011;31826;53.572;10.170;2023-06-04T06:09:34;5.27;;;1.50;;
46090;SDS011;31826;53.572;10.170;2023-06-04T06:12:01;3.30;;;1.60;;
46090;SDS011;31826;53.572;10.170;2023-06-04T06:14:26;4.22;;;1.60;;
46090;SDS011;31826;53.572;10.170;2023-06-04T06:16:52;7.10;;;1.80;;
46090;SDS011;31826;53.572;10.170;2023-06-04T06:19:18;4.73;;;1.40;;
46090;SDS011;31826;53.572;10.170;2023-06-04T06:21:44;6.60;;;1.70;;
46090;SDS011;31826;53.572;10.170;2023-06-04T06:24:10;3.80;;;1.70;;
46090;SDS011;31826;53.572;10.170;2023-06-04T06:26:35;5.83;;;2.00;;
46090;SDS011;31826;53.572;10.170;2023-06-04T06:29:02;4.70;;;1.60;;
46090;SDS011;31826;53.572;10.170;2023-06-04T06:31:27;6.00;;;1.67;;
46090;SDS011;31826;53.572;10.170;2023-06-04T06:33:53;3.25;;;1.48;;
46090;SDS011;31826;53.572;10.170;2023-06-04T06:36:19;4.60;;;1.70;;
46090;SDS011;31826;53.572;10.170;2023-06-04T06:38:45;6.73;;;1.70;;
46090;SDS011;31826;53.572;10.170;2023-06-04T06:41:11;6.00;;;2.00;;
46090;SDS011;31826;53.572;10.170;2023-06-04T06:43:37;5.38;;;1.85;;
46090;SDS011;31826;53.572;10.170;2023-06-04T06:46:02;2.95;;;1.30;;
46090;SDS011;31826;53.572;10.170;2023-06-04T06:48:28;3.00;;;1.23;;
46090;SDS011;31826;53.572;10.170;2023-06-04T06:50:54;4.47;;;1.40;;
46090;SDS011;31826;53.572;10.170;2023-06-04T06:53:20;6.07;;;1.50;;
46090;SDS011;31826;53.572;10.170;2023-06-04T06:55:46;5.00;;;1.23;;
46090;SDS011;31826;53.572;10.170;2023-06-04T06:58:12;4.65;;;1.48;;
46090;SDS011;31826;53.572;10.170;2023-06-04T07:00:38;6.97;;;1.83;;
46090;SDS011;31826;53.572;10.170;2023-06-04T07:03:03;6.17;;;1.63;;
46090;SDS011;31826;53.572;10.170;2023-06-04T07:05:29;4.63;;;1.50;;
46090;SDS011;31826;53.572;10.170;2023-06-04T07:07:55;3.13;;;1.38;;
46090;SDS011;31826;53.572;10.170;2023-06-04T07:10:22;6.37;;;1.63;;
46090;SDS011;31826;53.572;10.170;2023-06-04T07:12:49;4.45;;;1.50;;
46090;SDS011;31826;53.572;10.170;2023-06-04T07:15:15;3.50;;;1.30;;
46090;SDS011;31826;53.572;10.170;2023-06-04T07:17:41;5.20;;;1.67;;
46090;SDS011;31826;53.572;10.170;2023-06-04T07:20:07;3.65;;;1.40;;
46090;SDS011;31826;53.572;10.170;2023-06-04T07:22:34;2.92;;;1.25;;
46090;SDS011;31826;53.572;10.170;2023-06-04T07:25:00;3.00;;;1.35;;
46090;SDS011;31826;53.572;10.170;2023-06-04T07:27:26;8.35;;;1.70;;
46090;SDS011;31826;53.572;10.170;2023-06-04T07:29:52;3.72;;;1.33;;
46090;SDS011;31826;53.572;10.170;2023-06-04T07:32:18;4.47;;;1.52;;
46090;SDS011;31826;53.572;10.170;2023-06-04T07:34:43;3.80;;;1.35;;
46090;SDS011;31826;53.572;10.170;2023-06-04T07:37:09;4.00;;;1.30;;
46090;SDS011;31826;53.572;10.170;2023-06-04T07:39:35;3.27;;;1.30;;
46090;SDS011;31826;53.572;10.170;2023-06-04T07:42:04;5.05;;;1.40;;
46090;SDS011;31826;53.572;10.170;2023-06-04T07:44:30;2.80;;;1.30;;
46090;SDS011;31826;53.572;10.170;2023-06-04T07:46:56;4.50;;;1.60;;
46090;SDS011;31826;53.572;10.170;2023-06-04T07:49:21;4.32;;;1.30;;
46090;SDS011;31826;53.572;10.170;2023-06-04T07:51:47;2.83;;;1.20;;
46090;SDS011;31826;53.572;10.170;2023-06-04T07:54:13;4.20;;;1.50;;
46090;SDS011;31826;53.572;10.170;2023-06-04T07:56:39;4.45;;;1.20;;
46090;SDS011;31826;53.572;10.170;2023-06-04T07:59:05;3.63;;;1.30;;
46090;SDS011;31826;53.572;10.170;2023-06-04T08:01:30;4.07;;;1.20;;
46090;SDS011;31826;53.572;10.170;2023-06-04T08:03:56;3.00;;;1.10;;
46090;SDS011;31826;53.572;10.170;2023-06-04T08:06:24;3.97;;;1.80;;
46090;SDS011;31826;53.572;10.170;2023-06-04T08:08:51;3.85;;;1.33;;
46090;SDS011;31826;53.572;10.170;2023-06-04T08:11:18;2.42;;;1.40;;
46090;SDS011;31826;53.572;10.170;2023-06-04T08:13:44;3.05;;;1.55;;
46090;SDS011;31826;53.572;10.170;2023-06-04T08:16:10;3.33;;;1.40;;
46090;SDS011;31826;53.572;10.170;2023-06-04T08:18:38;3.67;;;1.45;;
46090;SDS011;31826;53.572;10.170;2023-06-04T08:21:05;6.30;;;1.88;;
46090;SDS011;31826;53.572;10.170;2023-06-04T08:23:34;3.20;;;1.40;;
46090;SDS011;31826;53.572;10.170;2023-06-04T08:26:00;3.33;;;1.20;;
46090;SDS011;31826;53.572;10.170;2023-06-04T08:28:25;4.53;;;1.30;;
46090;SDS011;31826;53.572;10.170;2023-06-04T08:30:51;2.92;;;1.40;;
46090;SDS011;31826;53.572;10.170;2023-06-04T08:33:17;3.53;;;1.25;;
46090;SDS011;31826;53.572;10.170;2023-06-04T08:35:43;3.22;;;1.13;;
46090;SDS011;31826;53.572;10.170;2023-06-04T08:38:08;3.58;;;1.40;;
46090;SDS011;31826;53.572;10.170;2023-06-04T08:40:34;3.07;;;1.40;;
46090;SDS011;31826;53.572;10.170;2023-06-04T08:43:00;3.40;;;1.40;;
46090;SDS011;31826;53.572;10.170;2023-06-04T08:45:26;3.40;;;1.42;;
46090;SDS011;31826;53.572;10.170;2023-06-04T08:47:53;2.88;;;1.13;;
46090;SDS011;31826;53.572;10.170;2023-06-04T08:50:22;4.03;;;1.20;;
46090;SDS011;31826;53.572;10.170;2023-06-04T08:52:53;1.52;;;1.05;;
46090;SDS011;31826;53.572;10.170;2023-06-04T08:55:21;4.47;;;1.40;;
46090;SDS011;31826;53.572;10.170;2023-06-04T08:57:49;2.85;;;1.15;;
46090;SDS011;31826;53.572;10.170;2023-06-04T09:00:18;2.60;;;1.05;;
46090;SDS011;31826;53.572;10.170;2023-06-04T09:02:45;2.40;;;1.20;;
46090;SDS011;31826;53.572;10.170;2023-06-04T09:05:15;3.20;;;1.30;;
46090;SDS011;31826;53.572;10.170;2023-06-04T09:07:44;2.55;;;1.20;;
46090;SDS011;31826;53.572;10.170;2023-06-04T09:10:12;4.43;;;1.90;;
46090;SDS011;31826;53.572;10.170;2023-06-04T09:12:43;2.30;;;1.17;;
46090;SDS011;31826;53.572;10.170;2023-06-04T09:15:12;2.53;;;1.05;;
46090;SDS011;31826;53.572;10.170;2023-06-04T09:17:38;3.88;;;1.27;;
46090;SDS011;31826;53.572;10.170;2023-06-04T09:20:04;3.58;;;1.20;;
46090;SDS011;31826;53.572;10.170;2023-06-04T09:22:39;2.35;;;0.90;;
46090;SDS011;31826;53.572;10.170;2023-06-04T09:25:05;4.53;;;1.20;;
46090;SDS011;31826;53.572;10.170;2023-06-04T09:27:38;2.35;;;1.48;;
46090;SDS011;31826;53.572;10.170;2023-06-04T09:30:07;1.80;;;1.20;;
46090;SDS011;31826;53.572;10.170;2023-06-04T09:32:34;2.20;;;1.02;;
46090;SDS011;31826;53.572;10.170;2023-06-04T09:37:35;2.65;;;1.30;;
46090;SDS011;31826;53.572;10.170;2023-06-04T09:40:01;2.80;;;1.00;;
46090;SDS011;31826;53.572;10.170;2023-06-04T09:42:29;3.10;;;1.10;;
46090;SDS011;31826;53.572;10.170;2023-06-04T09:44:55;2.70;;;1.02;;
46090;SDS011;31826;53.572;10.170;2023-06-04T09:47:23;2.80;;;1.05;;
46090;SDS011;31826;53.572;10.170;2023-06-04T09:49:49;2.40;;;1.03;;
46090;SDS011;31826;53.572;10.170;2023-06-04T09:52:16;2.77;;;1.20;;
46090;SDS011;31826;53.572;10.170;2023-06-04T09:54:42;2.67;;;1.30;;
46090;SDS011;31826;53.572;10.170;2023-06-04T09:57:17;2.70;;;1.17;;
46090;SDS011;31826;53.572;10.170;2023-06-04T09:59:48;3.78;;;1.42;;
46090;SDS011;31826;53.572;10.170;2023-06-04T10:02:18;2.65;;;1.13;;
46090;SDS011;31826;53.572;10.170;2023-06-04T10:04:49;2.35;;;1.27;;
46090;SDS011;31826;53.572;10.170;2023-06-04T10:07:24;1.20;;;0.90;;
46090;SDS011;31826;53.572;10.170;2023-06-04T10:09:51;3.60;;;1.48;;
46090;SDS011;31826;53.572;10.170;2023-06-04T10:12:20;2.10;;;1.20;;
46090;SDS011;31826;53.572;10.170;2023-06-04T10:14:59;3.40;;;1.30;;
46090;SDS011;31826;53.572;10.170;2023-06-04T10:17:30;2.15;;;0.95;;
46090;SDS011;31826;53.572;10.170;2023-06-04T10:19:58;3.05;;;1.13;;
46090;SDS011;31826;53.572;10.170;2023-06-04T10:22:26;3.50;;;1.23;;
46090;SDS011;31826;53.572;10.170;2023-06-04T10:24:54;4.75;;;1.38;;
46090;SDS011;31826;53.572;10.170;2023-06-04T10:27:19;2.17;;;1.20;;
46090;SDS011;31826;53.572;10.170;2023-06-04T10:29:47;1.58;;;0.98;;
46090;SDS011;31826;53.572;10.170;2023-06-04T10:32:14;1.92;;;1.10;;
46090;SDS011;31826;53.572;10.170;2023-06-04T10:34:41;4.78;;;1.10;;
46090;SDS011;31826;53.572;10.170;2023-06-04T10:37:18;3.83;;;1.13;;
46090;SDS011;31826;53.572;10.170;2023-06-04T10:39:54;4.75;;;1.20;;
46090;SDS011;31826;53.572;10.170;2023-06-04T10:42:21;2.30;;;1.40;;
46090;SDS011;31826;53.572;10.170;2023-06-04T10:44:48;2.33;;;1.10;;
46090;SDS011;31826;53.572;10.170;2023-06-04T10:47:22;6.87;;;1.63;;
46090;SDS011;31826;53.572;10.170;2023-06-04T10:49:52;2.33;;;1.02;;
46090;SDS011;31826;53.572;10.170;2023-06-04T10:52:19;1.92;;;1.08;;
46090;SDS011;31826;53.572;10.170;2023-06-04T10:54:46;2.00;;;1.00;;
46090;SDS011;31826;53.572;10.170;2023-06-04T10:57:18;2.13;;;1.10;;
46090;SDS011;31826;53.572;10.170;2023-06-04T10:59:57;2.60;;;1.20;;
46090;SDS011;31826;53.572;10.170;2023-06-04T11:02:24;1.92;;;1.20;;
46090;SDS011;31826;53.572;10.170;2023-06-04T11:05:03;2.90;;;1.20;;
46090;SDS011;31826;53.572;10.170;2023-06-04T11:10:12;2.15;;;1.00;;
46090;SDS011;31826;53.572;10.170;2023-06-04T11:15:12;3.05;;;1.10;;
46090;SDS011;31826;53.572;10.170;2023-06-04T11:17:48;2.30;;;1.30;;
46090;SDS011;31826;53.572;10.170;2023-06-04T11:20:17;1.67;;;1.20;;
46090;SDS011;31826;53.572;10.170;2023-06-04T11:22:54;3.57;;;1.30;;
46090;SDS011;31826;53.572;10.170;2023-06-04T11:25:24;2.75;;;1.23;;
46090;SDS011;31826;53.572;10.170;2023-06-04T11:27:54;2.25;;;1.20;;
46090;SDS011;31826;53.572;10.170;2023-06-04T11:30:20;4.20;;;1.30;;
46090;SDS011;31826;53.572;10.170;2023-06-04T11:32:46;2.47;;;1.10;;
46090;SDS011;31826;53.572;10.170;2023-06-04T11:35:12;2.42;;;1.10;;
46090;SDS011;31826;53.572;10.170;2023-06-04T11:37:38;3.80;;;1.17;;
46090;SDS011;31826;53.572;10.170;2023-06-04T11:40:15;3.20;;;1.10;;
46090;SDS011;31826;53.572;10.170;2023-06-04T11:42:42;1.65;;;1.05;;
46090;SDS011;31826;53.572;10.170;2023-06-04T11:45:09;1.83;;;1.05;;
46090;SDS011;31826;53.572;10.170;2023-06-04T11:47:39;2.90;;;1.50;;
46090;SDS011;31826;53.572;10.170;2023-06-04T11:50:28;3.20;;;1.38;;
46090;SDS011;31826;53.572;10.170;2023-06-04T11:52:54;3.80;;;1.25;;
46090;SDS011;31826;53.572;10.170;2023-06-04T11:55:20;2.47;;;1.15;;
46090;SDS011;31826;53.572;10.170;2023-06-04T11:57:47;2.58;;;1.20;;
46090;SDS011;31826;53.572;10.170;2023-06-04T12:00:14;3.38;;;1.30;;
46090;SDS011;31826;53.572;10.170;2023-06-04T12:02:54;2.80;;;1.10;;
46090;SDS011;31826;53.572;10.170;2023-06-04T12:05:22;2.10;;;1.20;;
46090;SDS011;31826;53.572;10.170;2023-06-04T12:07:51;4.22;;;1.13;;
46090;SDS011;31826;53.572;10.170;2023-06-04T12:10:18;3.97;;;1.30;;
46090;SDS011;31826;53.572;10.170;2023-06-04T12:12:44;2.30;;;1.20;;
46090;SDS011;31826;53.572;10.170;2023-06-04T12:15:11;3.20;;;1.20;;
46090;SDS011;31826;53.572;10.170;2023-06-04T12:17:37;3.75;;;1.27;;
46090;SDS011;31826;53.572;10.170;2023-06-04T12:20:13;1.92;;;1.15;;
46090;SDS011;31826;53.572;10.170;2023-06-04T12:22:46;2.87;;;1.30;;
46090;SDS011;31826;53.572;10.170;2023-06-04T12:25:12;3.80;;;1.35;;
46090;SDS011;31826;53.572;10.170;2023-06-04T12:27:49;2.03;;;1.08;;
46090;SDS011;31826;53.572;10.170;2023-06-04T12:30:15;3.85;;;1.30;;
46090;SDS011;31826;53.572;10.170;2023-06-04T12:32:40;2.65;;;1.15;;
46090;SDS011;31826;53.572;10.170;2023-06-04T12:35:07;2.83;;;1.40;;
46090;SDS011;31826;53.572;10.170;2023-06-04T12:37:33;3.45;;;1.23;;
46090;SDS011;31826;53.572;10.170;2023-06-04T12:39:59;2.80;;;1.27;;
46090;SDS011;31826;53.572;10.170;2023-06-04T12:42:24;3.83;;;1.33;;
46090;SDS011;31826;53.572;10.170;2023-06-04T12:44:53;2.70;;;1.15;;
46090;SDS011;31826;53.572;10.170;2023-06-04T12:47:18;4.77;;;1.27;;
46090;SDS011;31826;53.572;10.170;2023-06-04T12:49:46;2.97;;;1.30;;
46090;SDS011;31826;53.572;10.170;2023-06-04T12:52:11;3.07;;;1.40;;
46090;SDS011;31826;53.572;10.170;2023-06-04T12:54:39;3.72;;;1.80;;
46090;SDS011;31826;53.572;10.170;2023-06-04T12:57:05;3.33;;;1.47;;
46090;SDS011;31826;53.572;10.170;2023-06-04T12:59:30;1.87;;;1.10;;
46090;SDS011;31826;53.572;10.170;2023-06-04T13:01:56;3.83;;;1.40;;
46090;SDS011;31826;53.572;10.170;2023-06-04T13:04:22;2.88;;;1.33;;
46090;SDS011;31826;53.572;10.170;2023-06-04T13:06:51;2.70;;;1.30;;
46090;SDS011;31826;53.572;10.170;2023-06-04T13:09:20;2.92;;;1.30;;
46090;SDS011;31826;53.572;10.170;2023-06-04T13:11:48;3.42;;;1.40;;
46090;SDS011;31826;53.572;10.170;2023-06-04T13:14:13;2.05;;;1.15;;
46090;SDS011;31826;53.572;10.170;2023-06-04T13:16:39;3.15;;;1.05;;
46090;SDS011;31826;53.572;10.170;2023-06-04T13:19:05;2.33;;;1.20;;
46090;SDS011;31826;53.572;10.170;2023-06-04T13:21:32;2.55;;;1.15;;
46090;SDS011;31826;53.572;10.170;2023-06-04T13:23:58;2.35;;;1.20;;
46090;SDS011;31826;53.572;10.170;2023-06-04T13:26:23;3.00;;;1.40;;
46090;SDS011;31826;53.572;10.170;2023-06-04T13:28:50;3.60;;;1.20;;
46090;SDS011;31826;53.572;10.170;2023-06-04T13:31:16;3.00;;;1.20;;
46090;SDS011;31826;53.572;10.170;2023-06-04T13:33:42;3.33;;;1.27;;
46090;SDS011;31826;53.572;10.170;2023-06-04T13:36:08;3.47;;;1.55;;
46090;SDS011;31826;53.572;10.170;2023-06-04T13:38:34;1.70;;;1.07;;
46090;SDS011;31826;53.572;10.170;2023-06-04T13:41:00;2.10;;;1.15;;
46090;SDS011;31826;53.572;10.170;2023-06-04T13:43:26;2.40;;;1.10;;
46090;SDS011;31826;53.572;10.170;2023-06-04T13:45:51;3.40;;;1.40;;
46090;SDS011;31826;53.572;10.170;2023-06-04T13:48:17;4.07;;;1.20;;
46090;SDS011;31826;53.572;10.170;2023-06-04T13:50:43;2.00;;;1.10;;
46090;SDS011;31826;53.572;10.170;2023-06-04T13:53:09;2.40;;;1.15;;
46090;SDS011;31826;53.572;10.170;2023-06-04T13:55:35;1.83;;;1.20;;
46090;SDS011;31826;53.572;10.170;2023-06-04T13:58:01;2.17;;;1.25;;
46090;SDS011;31826;53.572;10.170;2023-06-04T14:00:27;3.13;;;1.43;;
46090;SDS011;31826;53.572;10.170;2023-06-04T14:02:54;4.55;;;2.50;;
46090;SDS011;31826;53.572;10.170;2023-06-04T14:05:21;3.40;;;1.40;;
46090;SDS011;31826;53.572;10.170;2023-06-04T14:07:48;2.20;;;1.10;;
46090;SDS011;31826;53.572;10.170;2023-06-04T14:10:14;2.92;;;1.38;;
46090;SDS011;31826;53.572;10.170;2023-06-04T14:12:40;1.80;;;1.10;;
46090;SDS011;31826;53.572;10.170;2023-06-04T14:15:06;1.45;;;1.00;;
46090;SDS011;31826;53.572;10.170;2023-06-04T14:17:37;2.23;;;1.07;;
46090;SDS011;31826;53.572;10.170;2023-06-04T14:20:04;3.17;;;1.40;;
46090;SDS011;31826;53.572;10.170;2023-06-04T14:22:38;1.95;;;1.15;;
46090;SDS011;31826;53.572;10.170;2023-06-04T14:25:04;1.83;;;1.05;;
46090;SDS011;31826;53.572;10.170;2023-06-04T14:27:32;3.00;;;1.27;;
46090;SDS011;31826;53.572;10.170;2023-06-04T14:29:59;2.53;;;1.85;;
46090;SDS011;31826;53.572;10.170;2023-06-04T14:32:26;2.63;;;1.35;;
46090;SDS011;31826;53.572;10.170;2023-06-04T14:34:52;3.90;;;2.23;;
46090;SDS011;31826;53.572;10.170;2023-06-04T14:37:17;2.05;;;1.35;;
46090;SDS011;31826;53.572;10.170;2023-06-04T14:39:44;2.92;;;1.25;;
46090;SDS011;31826;53.572;10.170;2023-06-04T14:42:10;3.43;;;1.00;;
46090;SDS011;31826;53.572;10.170;2023-06-04T14:44:36;3.88;;;1.23;;
46090;SDS011;31826;53.572;10.170;2023-06-04T14:47:01;3.40;;;1.20;;
46090;SDS011;31826;53.572;10.170;2023-06-04T14:49:27;2.53;;;1.23;;